Time;durP1;ratioP1;P1;durP2;ratioP2;P2;SDS_P1;SDS_P2;PMS_P1;PMS_P2;Temp;Humidity;BMP_temperature;BMP_pressure;BME280_temperature;BME280_humidity;BME280_pressure;Samples;Min_cycle;Max_cycle;Signal;HPM_P1;HPM_P2
2024/02/23 00:00:28;;;;;;;8.60;2.25;;;10.60;99.90;;;;;;5032190;28;20040;-76
2024/02/23 00:02:56;;;;;;;6.15;2.22;;;10.60;99.90;;;;;;5032537;28;20060;-75
2024/02/23 00:05:22;;;;;;;7.25;2.42;;;10.50;99.90;;;;;;5031064;28;20079;-76
2024/02/23 00:07:47;;;;;;;10.13;2.75;;;10.50;99.90;;;;;;5031966;28;20029;-76
2024/02/23 00:10:13;;;;;;;9.50;2.78;;;10.50;99.90;;;;;;5032125;28;20029;-75
2024/02/23 00:12:39;;;;;;;9.18;2.83;;;10.50;99.90;;;;;;5032049;28;20096;-75
2024/02/23 00:15:05;;;;;;;10.73;2.83;;;10.50;99.90;;;;;;5031821;28;20029;-76
2024/02/23 00:17:31;;;;;;;5.30;2.45;;;10.50;99.90;;;;;;5031891;28;20002;-73
2024/02/23 00:19:57;;;;;;;6.85;2.85;;;10.50;99.90;;;;;;5031826;28;20053;-76
2024/02/23 00:22:23;;;;;;;8.75;2.75;;;10.50;99.90;;;;;;5032073;28;20105;-74
2024/02/23 00:24:48;;;;;;;6.40;2.40;;;10.50;99.90;;;;;;5032135;28;20104;-75
2024/02/23 00:27:14;;;;;;;9.00;2.95;;;10.50;99.90;;;;;;5032483;28;20030;-76
2024/02/23 00:29:40;;;;;;;7.53;2.85;;;10.50;99.90;;;;;;5032669;28;20053;-76
2024/02/23 00:32:06;;;;;;;9.65;2.53;;;10.50;99.90;;;;;;5032252;28;20025;-75
2024/02/23 00:34:32;;;;;;;8.02;2.30;;;10.50;99.90;;;;;;5032146;28;20128;-76
2024/02/23 00:36:58;;;;;;;6.65;2.13;;;10.40;99.90;;;;;;5032348;28;20112;-76
2024/02/23 00:39:24;;;;;;;8.52;2.80;;;10.50;99.90;;;;;;5031860;28;20072;-74
2024/02/23 00:41:49;;;;;;;8.20;3.03;;;10.50;99.90;;;;;;5032084;28;20056;-77
2024/02/23 00:44:15;;;;;;;10.83;3.30;;;10.50;99.90;;;;;;5032176;28;20053;-76
2024/02/23 00:46:41;;;;;;;7.43;3.53;;;10.50;99.90;;;;;;5032346;28;20056;-76
2024/02/23 00:49:07;;;;;;;9.45;2.85;;;10.50;99.90;;;;;;5032241;28;20020;-76
2024/02/23 00:51:33;;;;;;;6.13;2.37;;;10.50;99.90;;;;;;5032086;28;20072;-76
2024/02/23 00:53:59;;;;;;;7.55;2.72;;;10.50;99.90;;;;;;5032071;28;20064;-76
2024/02/23 00:56:25;;;;;;;8.82;3.55;;;10.50;99.90;;;;;;5032456;28;20083;-76
2024/02/23 00:58:51;;;;;;;8.55;2.65;;;10.50;99.90;;;;;;5032140;28;20396;-76
2024/02/23 01:01:17;;;;;;;5.25;2.20;;;10.50;99.90;;;;;;5032395;28;20029;-76
2024/02/23 01:03:42;;;;;;;7.22;2.55;;;10.40;99.90;;;;;;5033040;28;20496;-75
2024/02/23 01:06:08;;;;;;;5.30;2.67;;;10.50;99.90;;;;;;5035556;28;20033;-76
2024/02/23 01:08:35;;;;;;;5.32;2.58;;;10.50;99.90;;;;;;5035722;28;20013;-75
2024/02/23 01:11:01;;;;;;;6.93;2.33;;;10.50;99.90;;;;;;5035894;28;20021;-76
2024/02/23 01:13:27;;;;;;;8.95;2.67;;;10.40;99.90;;;;;;5035609;28;20021;-76
2024/02/23 01:15:53;;;;;;;6.80;2.40;;;10.40;99.90;;;;;;5034071;28;20017;-76
2024/02/23 01:18:19;;;;;;;7.55;2.83;;;10.40;99.90;;;;;;5035520;28;20029;-75
2024/02/23 01:20:45;;;;;;;7.32;2.40;;;10.40;99.90;;;;;;5035355;28;20040;-76
2024/02/23 01:23:11;;;;;;;7.53;3.10;;;10.40;99.90;;;;;;5035427;28;20029;-74
2024/02/23 01:25:37;;;;;;;8.80;2.80;;;10.40;99.90;;;;;;5035700;28;20028;-75
2024/02/23 01:28:03;;;;;;;13.05;3.15;;;10.40;99.90;;;;;;5035446;28;20025;-76
2024/02/23 01:30:29;;;;;;;4.13;2.42;;;10.40;99.90;;;;;;5035619;28;20034;-75
2024/02/23 01:32:55;;;;;;;8.02;2.60;;;10.40;99.90;;;;;;5035277;28;20152;-76
2024/02/23 01:35:21;;;;;;;8.13;2.50;;;10.40;99.90;;;;;;5034922;28;20025;-75
2024/02/23 01:37:46;;;;;;;5.53;2.75;;;10.40;99.90;;;;;;5034853;28;20036;-75
2024/02/23 01:40:12;;;;;;;3.80;2.40;;;10.40;99.90;;;;;;5033428;28;20136;-75
2024/02/23 01:42:38;;;;;;;4.68;2.38;;;10.40;99.90;;;;;;5034979;28;20101;-75
2024/02/23 01:45:04;;;;;;;9.35;3.25;;;10.40;99.90;;;;;;5035185;28;20029;-76
2024/02/23 01:47:31;;;;;;;5.95;2.50;;;10.40;99.90;;;;;;5034849;28;20029;-76
2024/02/23 01:49:59;;;;;;;7.72;2.17;;;10.40;99.90;;;;;;5034450;28;20083;-76
2024/02/23 01:52:25;;;;;;;5.10;2.45;;;10.40;99.90;;;;;;5034820;28;20104;-75
2024/02/23 01:54:51;;;;;;;5.70;2.78;;;10.40;99.90;;;;;;5034720;28;20033;-76
2024/02/23 01:57:17;;;;;;;5.97;2.65;;;10.40;99.90;;;;;;5034722;28;20029;-75
2024/02/23 01:59:43;;;;;;;5.15;2.35;;;10.40;99.90;;;;;;5031275;28;20723;-76
2024/02/23 02:02:09;;;;;;;4.82;2.30;;;10.40;99.90;;;;;;5032015;28;20136;-75
2024/02/23 02:04:35;;;;;;;6.63;2.63;;;10.40;99.90;;;;;;5033186;28;20122;-75
2024/02/23 02:07:01;;;;;;;3.55;2.20;;;10.30;99.90;;;;;;5034735;28;20127;-75
2024/02/23 02:09:27;;;;;;;5.78;2.20;;;10.40;99.90;;;;;;5034829;28;20017;-76
2024/02/23 02:11:53;;;;;;;7.15;2.63;;;10.30;99.90;;;;;;5034503;28;20025;-75
2024/02/23 02:14:19;;;;;;;7.10;2.22;;;10.40;99.90;;;;;;5033942;28;20022;-76
2024/02/23 02:16:45;;;;;;;6.53;2.35;;;10.40;99.90;;;;;;5033685;28;20025;-75
2024/02/23 02:19:11;;;;;;;4.03;1.90;;;10.40;99.90;;;;;;5034050;28;20028;-76
2024/02/23 02:21:38;;;;;;;3.97;1.85;;;10.40;99.90;;;;;;5033948;28;20413;-75
2024/02/23 02:24:05;;;;;;;5.80;1.92;;;10.40;99.90;;;;;;5034464;28;20025;-75
2024/02/23 02:26:31;;;;;;;3.80;1.90;;;10.40;99.90;;;;;;5034185;28;20033;-76
2024/02/23 02:28:57;;;;;;;17.08;3.88;;;10.40;99.90;;;;;;5033664;28;20081;-76
2024/02/23 02:31:23;;;;;;;5.93;2.42;;;10.40;99.90;;;;;;5032849;28;20068;-75
2024/02/23 02:33:49;;;;;;;4.28;1.80;;;10.40;99.90;;;;;;5034256;28;20132;-75
2024/02/23 02:36:15;;;;;;;5.47;2.03;;;10.40;99.90;;;;;;5033817;28;20056;-75
2024/02/23 02:38:40;;;;;;;4.00;2.03;;;10.40;99.90;;;;;;5034041;28;20022;-76
2024/02/23 02:41:06;;;;;;;4.40;2.13;;;10.30;99.90;;;;;;5033488;28;20048;-76
2024/02/23 02:43:32;;;;;;;3.95;2.30;;;10.40;99.90;;;;;;5033831;28;20025;-75
2024/02/23 02:45:58;;;;;;;5.15;2.03;;;10.40;99.90;;;;;;5032785;28;20029;-76
2024/02/23 02:48:24;;;;;;;5.65;2.90;;;10.40;99.90;;;;;;5033574;28;20079;-74
2024/02/23 02:50:51;;;;;;;4.68;2.35;;;10.30;99.90;;;;;;5033828;28;20049;-76
2024/02/23 02:53:17;;;;;;;5.38;2.72;;;10.30;99.90;;;;;;5032423;28;20503;-75
2024/02/23 02:55:44;;;;;;;5.55;2.08;;;10.30;99.90;;;;;;5033554;28;20105;-75
2024/02/23 02:58:12;;;;;;;4.95;2.30;;;10.30;99.90;;;;;;5033860;28;20025;-76
2024/02/23 03:00:38;;;;;;;5.65;2.78;;;10.30;99.90;;;;;;5033826;28;20049;-76
2024/02/23 03:03:04;;;;;;;4.47;2.70;;;10.30;99.90;;;;;;5033741;28;20066;-76
2024/02/23 03:05:30;;;;;;;4.38;2.28;;;10.20;99.90;;;;;;5033671;28;20057;-76
2024/02/23 03:07:56;;;;;;;5.75;2.50;;;10.30;99.90;;;;;;5033203;28;20167;-76
2024/02/23 03:10:22;;;;;;;5.93;2.40;;;10.20;99.90;;;;;;5033193;28;20065;-75
2024/02/23 03:12:47;;;;;;;3.70;2.30;;;10.20;99.90;;;;;;5033132;28;20114;-75
2024/02/23 03:15:13;;;;;;;5.97;2.55;;;10.20;99.90;;;;;;5033075;28;20017;-75
2024/02/23 03:17:39;;;;;;;7.35;2.80;;;10.10;99.90;;;;;;5032698;28;20061;-74
2024/02/23 03:20:08;;;;;;;4.82;2.50;;;10.20;99.90;;;;;;5033123;28;20034;-75
2024/02/23 03:22:35;;;;;;;4.13;2.50;;;10.20;99.90;;;;;;5033635;28;20044;-76
2024/02/23 03:25:07;;;;;;;6.40;2.72;;;10.20;99.90;;;;;;5033427;28;20525;-76
2024/02/23 03:27:34;;;;;;;;;;;10.20;99.90;;;;;;5033435;28;20022;-76
2024/02/23 03:30:00;;;;;;;4.10;2.58;;;10.10;99.90;;;;;;5033116;28;19952;-76
2024/02/23 03:32:26;;;;;;;4.03;2.53;;;10.10;99.90;;;;;;5033525;28;20438;-75
2024/02/23 03:34:52;;;;;;;3.72;2.65;;;10.10;99.90;;;;;;5033223;28;20040;-76
2024/02/23 03:37:17;;;;;;;4.70;2.47;;;10.10;99.90;;;;;;5033731;28;20030;-75
2024/02/23 03:39:43;;;;;;;5.03;2.30;;;10.10;99.90;;;;;;5032757;28;20090;-75
2024/02/23 03:42:09;;;;;;;4.15;2.63;;;10.10;99.90;;;;;;5032938;28;20029;-75
2024/02/23 03:44:35;;;;;;;4.77;2.20;;;10.10;99.90;;;;;;5032900;28;20033;-76
2024/02/23 03:47:01;;;;;;;5.90;2.60;;;10.10;99.90;;;;;;5032852;28;20465;-76
2024/02/23 03:49:26;;;;;;;5.15;2.28;;;10.10;99.90;;;;;;5033005;28;20112;-76
2024/02/23 03:51:52;;;;;;;4.10;2.30;;;10.10;99.90;;;;;;5032811;28;20382;-76
2024/02/23 03:54:18;;;;;;;6.63;2.40;;;10.10;99.90;;;;;;5032738;28;20047;-75
2024/02/23 03:56:44;;;;;;;4.07;2.30;;;10.10;99.90;;;;;;5032856;28;20026;-76
2024/02/23 03:59:10;;;;;;;4.35;2.20;;;10.10;99.90;;;;;;5032686;28;20045;-75
2024/02/23 04:01:39;;;;;;;5.03;2.28;;;10.10;99.90;;;;;;5032730;28;20029;-76
2024/02/23 04:04:05;;;;;;;3.97;2.42;;;10.10;99.90;;;;;;5032612;28;20026;-76
2024/02/23 04:06:31;;;;;;;4.40;2.25;;;10.10;99.90;;;;;;5032292;28;20033;-75
2024/02/23 04:08:57;;;;;;;9.57;3.25;;;10.10;99.90;;;;;;5032321;28;20470;-75
2024/02/23 04:11:22;;;;;;;5.32;2.55;;;10.10;99.90;;;;;;5032429;28;20159;-73
2024/02/23 04:13:48;;;;;;;5.30;2.50;;;10.10;99.90;;;;;;5032487;28;20068;-75
2024/02/23 04:16:14;;;;;;;6.37;2.93;;;10.10;99.90;;;;;;5032389;28;20032;-74
2024/02/23 04:18:39;;;;;;;6.25;3.00;;;10.10;99.90;;;;;;5032542;28;20030;-76
2024/02/23 04:21:05;;;;;;;8.18;2.80;;;10.10;99.90;;;;;;5032647;28;20026;-75
2024/02/23 04:23:31;;;;;;;7.25;2.72;;;10.10;99.90;;;;;;5032877;28;20101;-75
2024/02/23 04:25:57;;;;;;;8.13;3.60;;;10.10;99.90;;;;;;5032646;28;20035;-75
2024/02/23 04:28:22;;;;;;;4.32;2.50;;;10.10;99.90;;;;;;5032420;28;20073;-74
2024/02/23 04:30:48;;;;;;;5.07;2.50;;;10.10;99.90;;;;;;5032297;28;20025;-76
2024/02/23 04:33:14;;;;;;;7.10;2.78;;;10.10;99.90;;;;;;5032679;28;20100;-76
2024/02/23 04:35:40;;;;;;;4.55;2.17;;;10.10;99.90;;;;;;5032569;28;20026;-76
2024/02/23 04:38:05;;;;;;;4.80;2.60;;;10.10;99.90;;;;;;5032420;28;20036;-75
2024/02/23 04:40:31;;;;;;;3.92;2.63;;;10.10;99.90;;;;;;5036174;28;20049;-76
2024/02/23 04:42:57;;;;;;;8.03;2.53;;;10.10;99.90;;;;;;5036408;28;20029;-76
2024/02/23 04:45:23;;;;;;;4.75;2.95;;;10.10;99.90;;;;;;5036010;28;20024;-76
2024/02/23 04:47:49;;;;;;;9.38;2.60;;;10.10;99.90;;;;;;5036288;28;20057;-76
2024/02/23 04:50:14;;;;;;;4.97;2.57;;;10.10;99.90;;;;;;5036164;28;20013;-76
2024/02/23 04:52:40;;;;;;;3.77;2.23;;;10.10;99.90;;;;;;5035706;28;20048;-74
2024/02/23 04:55:06;;;;;;;4.90;3.20;;;10.10;99.90;;;;;;5036127;28;20022;-75
2024/02/23 04:57:32;;;;;;;9.48;3.83;;;10.10;99.90;;;;;;5034796;28;20038;-75
2024/02/23 04:59:58;;;;;;;6.57;3.30;;;10.10;99.90;;;;;;5035801;28;20417;-75
2024/02/23 05:02:24;;;;;;;4.35;2.58;;;10.10;99.90;;;;;;5035939;28;20029;-75
2024/02/23 05:04:50;;;;;;;11.05;2.95;;;10.10;99.90;;;;;;5035993;28;20389;-76
2024/02/23 05:07:16;;;;;;;6.95;2.38;;;10.10;99.90;;;;;;5035639;28;20620;-76
2024/02/23 05:09:42;;;;;;;4.78;2.20;;;10.10;99.90;;;;;;5035967;28;20057;-76
2024/02/23 05:12:08;;;;;;;6.88;2.60;;;10.10;99.90;;;;;;5035884;28;20033;-74
2024/02/23 05:14:34;;;;;;;6.28;2.72;;;10.10;99.90;;;;;;5035422;28;20488;-75
2024/02/23 05:17:00;;;;;;;4.18;2.30;;;10.10;99.90;;;;;;5035695;28;20057;-75
2024/02/23 05:19:26;;;;;;;3.97;2.22;;;10.10;99.90;;;;;;5034316;28;20029;-75
2024/02/23 05:21:51;;;;;;;6.05;2.17;;;10.10;99.90;;;;;;5034893;28;20029;-75
2024/02/23 05:24:17;;;;;;;6.07;2.53;;;10.00;99.90;;;;;;5034624;28;20033;-76
2024/02/23 05:26:44;;;;;;;7.37;2.93;;;10.10;99.90;;;;;;5034762;28;20379;-76
2024/02/23 05:29:12;;;;;;;8.30;2.45;;;10.00;99.90;;;;;;5035375;28;20022;-76
2024/02/23 05:31:45;;;;;;;3.65;2.00;;;10.00;99.90;;;;;;5035513;28;20432;-73
2024/02/23 05:34:10;;;;;;;5.55;2.15;;;10.10;99.90;;;;;;5035460;28;20037;-75
2024/02/23 05:36:36;;;;;;;4.63;2.05;;;10.00;99.90;;;;;;5035447;28;20440;-76
2024/02/23 05:39:02;;;;;;;3.28;1.85;;;10.00;99.90;;;;;;5034922;28;20029;-76
2024/02/23 05:41:28;;;;;;;5.53;1.90;;;10.00;99.90;;;;;;5034880;28;20099;-76
2024/02/23 05:43:53;;;;;;;5.88;2.15;;;10.10;99.90;;;;;;5035053;28;20021;-74
2024/02/23 05:46:21;;;;;;;5.45;1.98;;;10.10;99.90;;;;;;5035268;28;20115;-75
2024/02/23 05:48:46;;;;;;;5.30;1.80;;;10.10;99.90;;;;;;5034915;28;20048;-76
2024/02/23 05:51:12;;;;;;;4.70;2.00;;;10.10;99.90;;;;;;5034428;28;20466;-75
2024/02/23 05:53:38;;;;;;;5.88;1.98;;;10.10;99.90;;;;;;5034965;28;20021;-74
2024/02/23 05:56:04;;;;;;;4.63;1.80;;;10.10;99.90;;;;;;5034867;28;20033;-75
2024/02/23 05:58:30;;;;;;;5.65;1.88;;;10.10;99.90;;;;;;5034753;28;20033;-76
2024/02/23 06:00:55;;;;;;;4.10;1.75;;;10.10;99.90;;;;;;5034377;28;20037;-76
2024/02/23 06:03:21;;;;;;;4.28;1.98;;;10.10;99.90;;;;;;5034863;28;20022;-76
2024/02/23 06:05:47;;;;;;;4.35;1.80;;;10.10;99.90;;;;;;5034349;28;20083;-76
2024/02/23 06:08:12;;;;;;;6.43;1.98;;;10.10;99.90;;;;;;5034260;28;20022;-76
2024/02/23 06:10:38;;;;;;;4.35;1.75;;;10.00;99.90;;;;;;5034506;28;20056;-75
2024/02/23 06:13:04;;;;;;;4.33;2.10;;;10.10;99.90;;;;;;5034307;28;20029;-75
2024/02/23 06:15:30;;;;;;;3.88;1.83;;;10.10;99.90;;;;;;5034785;28;20452;-76
2024/02/23 06:17:55;;;;;;;4.10;2.28;;;10.10;99.90;;;;;;5034461;28;20109;-76
2024/02/23 06:20:21;;;;;;;3.70;1.57;;;10.00;99.90;;;;;;5034071;28;20040;-75
2024/02/23 06:22:47;;;;;;;3.83;2.08;;;10.10;99.90;;;;;;5034414;28;20029;-76
2024/02/23 06:25:13;;;;;;;3.22;1.65;;;10.10;99.90;;;;;;5034326;28;20033;-76
2024/02/23 06:27:39;;;;;;;3.72;1.60;;;10.10;99.90;;;;;;5034219;28;20037;-75
2024/02/23 06:30:05;;;;;;;3.92;1.52;;;10.10;99.90;;;;;;5034430;28;20021;-76
2024/02/23 06:32:31;;;;;;;4.95;1.73;;;10.10;99.90;;;;;;5034634;28;20030;-75
2024/02/23 06:34:57;;;;;;;4.07;1.88;;;10.10;99.90;;;;;;5034241;28;20044;-75
2024/02/23 06:37:23;;;;;;;3.28;1.98;;;10.10;99.90;;;;;;5033964;28;20029;-73
2024/02/23 06:39:54;;;;;;;3.83;1.83;;;10.10;99.90;;;;;;5033779;28;20030;-76
2024/02/23 06:42:20;;;;;;;4.53;1.77;;;10.10;99.90;;;;;;5033519;28;20128;-75
2024/02/23 06:44:46;;;;;;;5.43;2.23;;;10.10;99.90;;;;;;5034909;28;20152;-75
2024/02/23 06:47:12;;;;;;;3.40;1.57;;;10.10;99.90;;;;;;5033624;28;20041;-75
2024/02/23 06:49:42;;;;;;;3.70;1.55;;;10.10;99.90;;;;;;5033921;28;20100;-75
2024/02/23 06:52:07;;;;;;;3.88;1.85;;;10.10;99.90;;;;;;5033559;28;20029;-71
2024/02/23 06:54:33;;;;;;;4.72;1.40;;;10.10;99.90;;;;;;5033441;28;20121;-76
2024/02/23 06:56:59;;;;;;;4.53;1.83;;;10.10;99.90;;;;;;5033309;28;20065;-76
2024/02/23 06:59:25;;;;;;;4.40;1.63;;;10.10;99.90;;;;;;5033633;28;20505;-75
2024/02/23 07:01:51;;;;;;;5.00;1.85;;;10.10;99.90;;;;;;5032733;28;20145;-75
2024/02/23 07:04:18;;;;;;;2.75;1.70;;;10.10;99.90;;;;;;5033609;28;20033;-76
2024/02/23 07:06:44;;;;;;;4.15;2.08;;;10.10;99.90;;;;;;5033260;28;20030;-76
2024/02/23 07:09:11;;;;;;;5.47;2.08;;;10.10;99.90;;;;;;5033465;28;20026;-75
2024/02/23 07:11:38;;;;;;;4.45;2.30;;;10.10;99.90;;;;;;5033651;28;20056;-75
2024/02/23 07:14:04;;;;;;;6.00;2.35;;;10.10;99.90;;;;;;5033539;28;20496;-75
2024/02/23 07:16:30;;;;;;;3.40;2.00;;;10.10;99.90;;;;;;5033271;28;20033;-75
2024/02/23 07:18:56;;;;;;;5.57;2.60;;;10.10;99.90;;;;;;5033253;28;20034;-76
2024/02/23 07:21:22;;;;;;;4.78;1.98;;;10.10;99.90;;;;;;5032087;28;20045;-75
2024/02/23 07:23:48;;;;;;;5.60;2.40;;;10.10;99.90;;;;;;5032830;28;20029;-76
2024/02/23 07:26:14;;;;;;;5.70;2.45;;;10.20;99.90;;;;;;5033724;28;20034;-75
2024/02/23 07:28:40;;;;;;;4.65;2.25;;;10.20;99.90;;;;;;5033201;28;20118;-76
2024/02/23 07:31:05;;;;;;;5.53;2.30;;;10.20;99.90;;;;;;5033468;28;20035;-75
2024/02/23 07:33:31;;;;;;;4.68;2.13;;;10.20;99.90;;;;;;5031736;28;20044;-73
2024/02/23 07:35:57;;;;;;;6.27;2.20;;;10.20;99.90;;;;;;5029908;28;20029;-73
2024/02/23 07:38:23;;;;;;;3.70;2.15;;;10.20;99.90;;;;;;5029992;28;20048;-73
2024/02/23 07:40:49;;;;;;;5.03;2.40;;;10.20;99.90;;;;;;5032131;28;20045;-73
2024/02/23 07:43:14;;;;;;;6.97;2.28;;;10.10;99.90;;;;;;5032897;28;20105;-75
2024/02/23 07:45:40;;;;;;;5.82;1.85;;;10.10;99.90;;;;;;5032935;28;20025;-75
2024/02/23 07:48:08;;;;;;;6.22;1.80;;;10.20;99.90;;;;;;5032528;28;20029;-75
2024/02/23 07:50:34;;;;;;;4.77;1.97;;;10.20;99.90;;;;;;5032847;28;20456;-78
2024/02/23 07:53:00;;;;;;;5.17;2.13;;;10.20;99.90;;;;;;5032717;28;20108;-74
2024/02/23 07:55:25;;;;;;;4.70;2.00;;;10.30;99.90;;;;;;5032263;28;20033;-74
2024/02/23 07:57:51;;;;;;;6.65;2.30;;;10.30;99.90;;;;;;5032520;28;20032;-73
2024/02/23 08:00:17;;;;;;;5.35;2.45;;;10.40;99.90;;;;;;5032472;28;20068;-74
2024/02/23 08:02:43;;;;;;;5.07;2.30;;;10.40;99.90;;;;;;5032358;28;20482;-74
2024/02/23 08:05:09;;;;;;;6.40;2.65;;;10.40;99.90;;;;;;5032464;28;20057;-74
2024/02/23 08:07:35;;;;;;;13.60;4.15;;;10.50;99.90;;;;;;5032538;28;20116;-75
2024/02/23 08:10:02;;;;;;;11.45;2.97;;;10.50;99.90;;;;;;5031952;28;20083;-73
2024/02/23 08:12:28;;;;;;;7.65;2.53;;;10.60;99.90;;;;;;5033173;28;20475;-72
2024/02/23 08:14:55;;;;;;;14.48;2.88;;;10.60;99.90;;;;;;5036894;28;20034;-73
2024/02/23 08:17:21;;;;;;;9.88;2.63;;;10.60;99.90;;;;;;5036700;28;20100;-74
2024/02/23 08:19:47;;;;;;;8.15;2.70;;;10.70;99.90;;;;;;5035830;28;20362;-73
2024/02/23 08:22:13;;;;;;;9.70;2.83;;;10.70;99.90;;;;;;5036322;28;20044;-75
2024/02/23 08:24:39;;;;;;;8.82;2.83;;;10.70;99.90;;;;;;5036091;28;20033;-73
2024/02/23 08:27:04;;;;;;;10.02;2.70;;;10.70;99.90;;;;;;5036070;28;20034;-74
2024/02/23 08:29:30;;;;;;;8.05;2.60;;;10.80;99.90;;;;;;5035083;28;20461;-75
2024/02/23 08:31:56;;;;;;;9.43;2.72;;;10.80;99.90;;;;;;5036002;28;20025;-75
2024/02/23 08:34:22;;;;;;;7.78;1.90;;;10.80;99.90;;;;;;5035736;28;20025;-74
2024/02/23 08:36:47;;;;;;;11.40;2.78;;;10.90;99.90;;;;;;5036076;28;20393;-74
2024/02/23 08:39:13;;;;;;;8.10;2.83;;;10.90;99.90;;;;;;5036409;28;20022;-75
2024/02/23 08:41:39;;;;;;;6.55;2.58;;;10.90;99.90;;;;;;5036002;28;20049;-74
2024/02/23 08:44:05;;;;;;;7.90;2.28;;;10.90;99.90;;;;;;5035603;28;20032;-74
2024/02/23 08:46:30;;;;;;;5.57;2.50;;;10.90;99.90;;;;;;5035893;28;20029;-75
2024/02/23 08:48:56;;;;;;;4.82;2.22;;;10.90;99.90;;;;;;5032334;28;20101;-75
2024/02/23 08:51:22;;;;;;;9.13;2.50;;;11.00;99.90;;;;;;5020144;28;20075;-73
2024/02/23 08:53:48;;;;;;;9.80;2.60;;;11.00;99.90;;;;;;5032891;28;20412;-74
2024/02/23 08:56:15;;;;;;;7.25;2.38;;;11.00;99.90;;;;;;5034982;28;20042;-74
2024/02/23 08:58:41;;;;;;;9.90;2.60;;;11.00;99.90;;;;;;5035206;28;20496;-75
2024/02/23 09:01:09;;;;;;;5.65;2.33;;;11.00;99.90;;;;;;5035775;28;20029;-74
2024/02/23 09:03:35;;;;;;;8.48;2.75;;;11.10;99.90;;;;;;5035452;28;20021;-75
2024/02/23 09:06:01;;;;;;;9.05;2.55;;;11.10;99.90;;;;;;5035215;28;20430;-75
2024/02/23 09:08:27;;;;;;;9.88;2.75;;;11.10;99.90;;;;;;5035067;28;20017;-75
2024/02/23 09:10:52;;;;;;;6.47;2.70;;;11.10;99.90;;;;;;5035090;28;20025;-74
2024/02/23 09:13:18;;;;;;;9.35;2.58;;;11.10;99.90;;;;;;5035436;28;20029;-73
2024/02/23 09:15:44;;;;;;;6.93;3.13;;;11.10;99.90;;;;;;5035323;28;20033;-75
2024/02/23 09:18:09;;;;;;;8.65;3.15;;;11.10;99.90;;;;;;5034530;28;20090;-74
2024/02/23 09:20:35;;;;;;;6.15;3.08;;;11.10;99.90;;;;;;5033569;28;20045;-75
2024/02/23 09:23:01;;;;;;;6.78;2.85;;;11.10;99.90;;;;;;5035308;28;20025;-74
2024/02/23 09:25:27;;;;;;;8.35;2.78;;;11.10;99.90;;;;;;5034677;28;20053;-74
2024/02/23 09:27:57;;;;;;;9.75;3.70;;;11.10;99.90;;;;;;5035434;28;20022;-76
2024/02/23 09:30:22;;;;;;;8.07;3.00;;;11.10;99.90;;;;;;5032667;28;20026;-75
2024/02/23 09:32:48;;;;;;;8.23;3.80;;;11.10;99.90;;;;;;5034145;28;20036;-75
2024/02/23 09:35:14;;;;;;;7.07;2.80;;;11.10;99.90;;;;;;5033279;28;20040;-74
2024/02/23 09:37:40;;;;;;;5.85;2.60;;;11.10;99.90;;;;;;5034976;28;20032;-75
2024/02/23 09:40:06;;;;;;;7.15;2.30;;;11.10;99.90;;;;;;5033978;28;20433;-73
2024/02/23 09:42:34;;;;;;;6.43;2.85;;;11.20;99.90;;;;;;5034941;28;20030;-71
2024/02/23 09:45:00;;;;;;;5.53;2.72;;;11.20;99.90;;;;;;5034519;28;20028;-75
2024/02/23 09:47:29;;;;;;;5.38;3.10;;;11.20;99.90;;;;;;5034170;28;20064;-75
2024/02/23 09:49:55;;;;;;;8.02;2.65;;;11.10;99.90;;;;;;5034394;28;20507;-76
2024/02/23 09:52:22;;;;;;;10.32;3.13;;;11.20;99.90;;;;;;5034839;28;20021;-75
2024/02/23 09:54:48;;;;;;;11.93;3.20;;;11.20;99.90;;;;;;5034294;28;20049;-75
2024/02/23 09:57:16;;;;;;;7.60;2.67;;;11.20;99.90;;;;;;5034577;28;20504;-74
2024/02/23 09:59:41;;;;;;;8.38;2.75;;;11.20;99.90;;;;;;5034281;28;20489;-75
2024/02/23 10:02:12;;;;;;;7.55;2.72;;;11.20;99.90;;;;;;5034454;28;20044;-75
2024/02/23 10:04:43;;;;;;;8.80;3.08;;;11.20;99.90;;;;;;5034670;28;20025;-73
2024/02/23 10:07:09;;;;;;;6.75;2.75;;;11.20;99.90;;;;;;5033939;28;20060;-74
2024/02/23 10:09:35;;;;;;;11.20;3.20;;;11.20;99.90;;;;;;5034269;28;20606;-75
2024/02/23 10:12:02;;;;;;;10.45;2.78;;;11.20;99.90;;;;;;5033944;28;20484;-75
2024/02/23 10:14:28;;;;;;;8.07;2.72;;;11.20;99.90;;;;;;5033524;28;20030;-74
2024/02/23 10:16:55;;;;;;;9.73;3.10;;;11.20;99.90;;;;;;5032257;28;20018;-75
2024/02/23 10:19:21;;;;;;;12.85;3.38;;;11.30;99.90;;;;;;5034177;28;20060;-75
2024/02/23 10:21:47;;;;;;;6.63;3.00;;;11.30;99.90;;;;;;5033991;28;20034;-75
2024/02/23 10:24:19;;;;;;;9.77;3.33;;;11.20;99.90;;;;;;5033977;28;20155;-74
2024/02/23 10:26:44;;;;;;;10.95;3.40;;;11.30;99.90;;;;;;5033771;28;20029;-73
2024/02/23 10:29:10;;;;;;;11.35;3.72;;;11.30;99.90;;;;;;5033557;28;20020;-74
2024/02/23 10:31:42;;;;;;;10.52;3.60;;;11.30;99.90;;;;;;5033457;28;20040;-75
2024/02/23 10:34:12;;;;;;;14.25;3.55;;;11.30;99.90;;;;;;5033440;28;20482;-74
2024/02/23 10:36:45;;;;;;;6.68;2.92;;;11.40;99.90;;;;;;5032567;28;20453;-75
2024/02/23 10:39:15;;;;;;;8.93;3.00;;;11.40;99.90;;;;;;5033247;28;20478;-75
2024/02/23 10:41:55;;;;;;;8.50;3.75;;;11.40;99.90;;;;;;5032302;28;20056;-74
2024/02/23 10:44:21;;;;;;;12.07;3.40;;;11.40;99.90;;;;;;5032656;28;20487;-74
2024/02/23 10:46:49;;;;;;;10.35;3.63;;;11.40;99.90;;;;;;5032328;28;20029;-74
2024/02/23 10:49:17;;;;;;;11.88;4.07;;;11.40;99.90;;;;;;5032639;28;20026;-74
2024/02/23 10:51:44;;;;;;;15.68;3.50;;;11.40;99.90;;;;;;5032745;28;20112;-74
2024/02/23 10:54:10;;;;;;;9.73;3.60;;;11.40;99.90;;;;;;5033024;28;20445;-75
2024/02/23 10:56:36;;;;;;;10.85;3.53;;;11.40;99.90;;;;;;5033709;28;20029;-74
2024/02/23 10:59:02;;;;;;;10.27;3.15;;;11.40;99.90;;;;;;5033545;28;20083;-75
2024/02/23 11:01:29;;;;;;;8.88;3.25;;;11.40;99.90;;;;;;5033268;28;20096;-74
2024/02/23 11:03:55;;;;;;;11.60;3.78;;;11.50;99.90;;;;;;5033093;28;20068;-74
2024/02/23 11:06:28;;;;;;;10.20;3.13;;;11.50;99.90;;;;;;5033698;28;20025;-75
2024/02/23 11:08:53;;;;;;;14.57;3.80;;;11.60;99.90;;;;;;5033842;28;20462;-75
2024/02/23 11:11:19;;;;;;;10.00;3.53;;;11.60;99.90;;;;;;5033580;28;20091;-75
2024/02/23 11:13:46;;;;;;;13.15;4.03;;;11.60;99.90;;;;;;5033328;28;20018;-74
2024/02/23 11:16:23;;;;;;;13.00;4.30;;;11.60;99.90;;;;;;5033380;28;20030;-71
2024/02/23 11:18:49;;;;;;;16.20;4.85;;;11.60;99.90;;;;;;5033150;28;20029;-74
2024/02/23 11:21:14;;;;;;;9.98;4.05;;;11.60;99.90;;;;;;5032845;28;20090;-75
2024/02/23 11:23:48;;;;;;;10.88;4.28;;;11.70;99.90;;;;;;5033028;28;20018;-73
2024/02/23 11:26:14;;;;;;;13.98;3.90;;;11.70;99.90;;;;;;5033425;28;20100;-75
2024/02/23 11:28:54;;;;;;;16.20;4.30;;;11.70;99.90;;;;;;5033104;28;20032;-74
2024/02/23 11:31:25;;;;;;;10.68;3.90;;;11.70;99.90;;;;;;5032753;28;20120;-74
2024/02/23 11:33:53;;;;;;;11.13;5.03;;;11.70;99.90;;;;;;5033102;28;20381;-74
2024/02/23 11:36:39;;;;;;;14.95;4.40;;;11.70;99.90;;;;;;5032785;28;20304;-74
2024/02/23 11:39:05;;;;;;;21.00;4.20;;;11.70;99.90;;;;;;5040537;22;20064;-75
2024/02/23 11:41:31;;;;;;;14.35;4.05;;;11.80;99.90;;;;;;5032886;28;20038;-75
2024/02/23 11:44:00;;;;;;;16.08;4.55;;;11.80;99.90;;;;;;5032400;28;20507;-73
2024/02/23 11:46:26;;;;;;;12.57;4.60;;;11.80;99.90;;;;;;5032428;28;20087;-75
2024/02/23 11:48:54;;;;;;;15.48;3.75;;;11.80;99.90;;;;;;5032369;28;20546;-75
2024/02/23 11:51:22;;;;;;;17.60;4.60;;;11.90;99.90;;;;;;5032780;28;20026;-74
2024/02/23 11:53:49;;;;;;;16.02;4.40;;;11.90;99.90;;;;;;5033046;28;20052;-70
2024/02/23 11:56:14;;;;;;;13.13;3.90;;;11.90;99.90;;;;;;5033654;28;20029;-74
2024/02/23 11:58:41;;;;;;;10.52;4.53;;;12.00;99.90;;;;;;5032065;28;20021;-73
2024/02/23 12:01:07;;;;;;;15.18;4.15;;;12.00;99.90;;;;;;5033088;28;20084;-75
2024/02/23 12:03:33;;;;;;;14.20;4.97;;;12.00;99.90;;;;;;5032542;28;20026;-74
2024/02/23 12:06:00;;;;;;;10.07;4.13;;;12.00;99.90;;;;;;5031561;28;20032;-74
2024/02/23 12:08:27;;;;;;;11.85;4.07;;;12.00;99.90;;;;;;5032655;28;20022;-74
2024/02/23 12:10:56;;;;;;;17.25;4.63;;;12.00;99.90;;;;;;5032691;28;20104;-74
2024/02/23 12:13:23;;;;;;;13.70;4.18;;;12.10;99.90;;;;;;5031091;28;20477;-73
2024/02/23 12:15:53;;;;;;;12.05;4.75;;;12.10;99.90;;;;;;5030124;28;20392;-73
2024/02/23 12:18:23;;;;;;;14.02;4.40;;;12.10;99.90;;;;;;5030818;28;20022;-74
2024/02/23 12:20:49;;;;;;;9.45;4.32;;;12.10;99.90;;;;;;5031449;28;20041;-74
2024/02/23 12:23:15;;;;;;;13.00;4.53;;;12.10;99.90;;;;;;5032467;28;20532;-73
2024/02/23 12:25:53;;;;;;;14.00;4.47;;;12.10;99.90;;;;;;5032274;28;20029;-74
2024/02/23 12:28:19;;;;;;;14.45;4.65;;;12.10;99.90;;;;;;5032186;28;20048;-73
2024/02/23 12:30:46;;;;;;;12.05;3.88;;;12.20;99.90;;;;;;5032254;28;20461;-73
2024/02/23 12:33:15;;;;;;;13.32;4.55;;;12.20;99.90;;;;;;5031826;28;20053;-73
2024/02/23 12:35:41;;;;;;;17.92;4.80;;;12.20;99.90;;;;;;5031869;28;20030;-74
2024/02/23 12:38:07;;;;;;;14.63;4.90;;;12.30;99.90;;;;;;5029673;28;20048;-73
2024/02/23 12:40:33;;;;;;;12.82;4.65;;;12.30;99.90;;;;;;5028568;28;20137;-74